Time;durP1;ratioP1;P1;durP2;ratioP2;P2;SDS_P1;SDS_P2;PMS_P1;PMS_P2;Temp;Humidity;BMP_temperature;BMP_pressure;BME280_temperature;BME280_humidity;BME280_pressure;Samples;Min_cycle;Max_cycle;Signal;HPM_P1;HPM_P2
2023/05/15 00:01:56;;;;;;;8.70;5.20;;;;;;;9.24;81.78;100523.36;107078;1280;23284;-51
2023/05/15 00:04:23;;;;;;;9.20;5.00;;;;;;;9.21;81.73;100521.39;107433;1280;24844;-44
2023/05/15 00:06:50;;;;;;;11.40;4.90;;;;;;;9.15;81.57;100522.40;106800;1280;22550;-44
2023/05/15 00:09:17;;;;;;;12.90;5.40;;;;;;;9.11;81.79;100528.64;107029;1280;22540;-43
2023/05/15 00:11:43;;;;;;;15.00;5.50;;;;;;;9.09;81.88;100520.59;107148;1280;22362;-44
2023/05/15 00:14:10;;;;;;;18.30;5.50;;;;;;;9.04;82.06;100520.20;106567;1280;22706;-52
2023/05/15 00:16:37;;;;;;;9.70;4.70;;;;;;;9.03;82.66;100516.02;106856;1280;22549;-53
2023/05/15 00:19:04;;;;;;;10.40;4.70;;;;;;;9.01;82.82;100514.96;106773;1280;22524;-50
2023/05/15 00:21:31;;;;;;;6.60;3.90;;;;;;;8.97;83.22;100520.14;106881;1280;25443;-44
2023/05/15 00:23:58;;;;;;;7.70;4.00;;;;;;;8.93;83.30;100517.66;107399;1280;22535;-44
2023/05/15 00:26:25;;;;;;;8.20;3.70;;;;;;;8.88;83.70;100508.73;106759;1280;25380;-44
2023/05/15 00:28:52;;;;;;;7.30;4.10;;;;;;;8.82;84.00;100511.45;106807;1280;22544;-51
2023/05/15 00:31:19;;;;;;;13.70;4.60;;;;;;;8.73;84.53;100517.62;107059;1280;22549;-44
2023/05/15 00:33:46;;;;;;;8.00;4.20;;;;;;;8.67;85.25;100513.90;107068;1280;22525;-45
2023/05/15 00:36:13;;;;;;;12.70;5.20;;;;;;;8.64;86.00;100510.58;107103;1280;23733;-42
2023/05/15 00:38:40;;;;;;;16.10;4.90;;;;;;;8.62;86.38;100507.93;106749;1280;22553;-44
2023/05/15 00:41:07;;;;;;;10.10;4.40;;;;;;;8.63;86.54;100506.20;107176;1280;22711;-44
2023/05/15 00:43:35;;;;;;;9.10;4.50;;;;;;;8.61;86.56;100502.19;107181;1280;25419;-44
2023/05/15 00:46:02;;;;;;;5.90;4.10;;;;;;;8.63;86.74;100502.02;106491;1280;22543;-46
2023/05/15 00:48:29;;;;;;;10.70;4.90;;;;;;;8.66;86.84;100503.64;106747;1280;22520;-44
2023/05/15 00:50:56;;;;;;;7.80;5.00;;;;;;;8.68;86.97;100503.13;106934;1280;25416;-44
2023/05/15 00:53:23;;;;;;;11.50;5.40;;;;;;;8.68;87.19;100504.16;106999;1280;22536;-44
2023/05/15 00:55:51;;;;;;;10.70;5.30;;;;;;;8.68;87.42;100503.30;106621;1259;26038;-45
2023/05/15 00:58:18;;;;;;;12.00;4.70;;;;;;;8.68;87.48;100503.48;106761;1280;22539;-42
2023/05/15 01:00:45;;;;;;;8.40;4.30;;;;;;;8.65;87.34;100504.66;106737;1280;22501;-44
2023/05/15 01:03:12;;;;;;;9.90;4.30;;;;;;;8.63;87.43;100501.85;106794;1280;25662;-42
2023/05/15 01:05:39;;;;;;;11.80;5.30;;;;;;;8.64;87.42;100503.08;106854;1280;22540;-42
2023/05/15 01:08:46;;;;;;;9.70;3.50;;;;;;;8.62;87.17;100507.92;106583;1280;22523;-46
2023/05/15 01:11:14;;;;;;;8.70;3.60;;;;;;;8.55;86.83;100502.13;106778;1280;22523;-50
2023/05/15 01:13:41;;;;;;;9.60;4.10;;;;;;;8.46;86.96;100501.15;106901;1280;24830;-51
2023/05/15 01:16:08;;;;;;;8.40;3.90;;;;;;;8.39;87.20;100498.63;107052;1280;22634;-54
2023/05/15 01:18:35;;;;;;;10.90;3.90;;;;;;;8.36;87.59;100495.98;106900;1280;25278;-44
2023/05/15 01:21:14;;;;;;;8.60;3.90;;;;;;;8.34;87.86;100498.52;107044;1280;25211;-45
2023/05/15 01:23:53;;;;;;;7.00;4.10;;;;;;;8.34;87.89;100501.30;106628;1280;23396;-44
2023/05/15 01:26:42;;;;;;;7.10;4.50;;;;;;;8.35;88.09;100501.84;107328;1280;24366;-52
2023/05/15 01:29:36;;;;;;;11.00;4.80;;;;;;;8.36;88.07;100504.85;106878;1280;25399;-51
2023/05/15 01:32:08;;;;;;;6.30;4.50;;;;;;;8.35;88.27;100500.83;106745;1280;22606;-45
2023/05/15 01:35:04;;;;;;;15.60;5.00;;;;;;;8.34;88.37;100498.71;106801;1280;22545;-51
2023/05/15 01:37:31;;;;;;;10.70;4.10;;;;;;;8.35;88.18;100501.84;106850;1280;22684;-52
2023/05/15 01:40:00;;;;;;;8.50;4.50;;;;;;;8.32;88.01;100502.16;107318;1266;24237;-51
2023/05/15 01:42:29;;;;;;;9.60;4.20;;;;;;;8.29;88.03;100501.94;106860;1280;22493;-50
2023/05/15 01:44:56;;;;;;;7.80;4.20;;;;;;;8.28;88.30;100498.28;106891;1280;22526;-43
2023/05/15 01:47:39;;;;;;;15.30;6.00;;;;;;;8.26;88.18;100496.19;107482;1280;25275;-44
2023/05/15 01:50:06;;;;;;;5.60;4.00;;;;;;;8.24;88.32;100495.47;106878;1280;22595;-43
2023/05/15 01:52:36;;;;;;;12.80;4.20;;;;;;;8.25;88.12;100497.90;107251;1280;22573;-52
2023/05/15 01:55:04;;;;;;;6.20;4.30;;;;;;;8.24;87.86;100493.19;106934;1280;22550;-51
2023/05/15 01:57:32;;;;;;;12.40;4.10;;;;;;;8.22;87.91;100490.90;106748;1280;25287;-43
2023/05/15 01:59:59;;;;;;;14.40;4.90;;;;;;;8.20;87.66;100490.37;106696;1280;24256;-51
2023/05/15 02:02:26;;;;;;;9.10;4.20;;;;;;;8.17;87.74;100487.71;107122;1280;24555;-44
2023/05/15 02:04:55;;;;;;;10.60;4.80;;;;;;;8.13;87.77;100493.58;106914;1280;22817;-44
2023/05/15 02:07:22;;;;;;;12.00;4.00;;;;;;;8.10;87.92;100495.79;107230;1280;25242;-44
2023/05/15 02:09:52;;;;;;;5.50;3.50;;;;;;;8.07;87.62;100495.25;107229;1280;22521;-42
2023/05/15 02:12:19;;;;;;;10.10;3.30;;;;;;;8.02;87.57;100492.20;107038;1257;22536;-44
2023/05/15 02:14:47;;;;;;;6.70;3.90;;;;;;;7.99;87.72;100496.85;107395;1280;22355;-51
2023/05/15 02:17:15;;;;;;;10.10;3.90;;;;;;;7.99;87.70;100497.39;107267;1280;22590;-45
2023/05/15 02:19:42;;;;;;;5.20;3.10;;;;;;;7.97;87.46;100499.27;106795;1280;22533;-45
2023/05/15 02:22:09;;;;;;;7.00;3.50;;;;;;;7.94;87.75;100501.84;106866;1280;22695;-43
2023/05/15 02:24:36;;;;;;;4.50;3.30;;;;;;;7.91;87.89;100501.62;106938;1280;22517;-51
2023/05/15 02:27:25;;;;;;;12.10;3.70;;;;;;;7.88;87.83;100501.05;106901;1280;22524;-44
2023/05/15 02:30:07;;;;;;;12.40;4.10;;;;;;;7.79;88.01;100504.39;107133;1280;22714;-43
2023/05/15 02:32:47;;;;;;;5.00;3.60;;;;;;;7.72;88.32;100505.52;106992;1280;22939;-50
2023/05/15 02:35:18;;;;;;;21.30;5.70;;;;;;;7.70;88.38;100507.90;107072;1280;22648;-46
2023/05/15 02:37:47;;;;;;;15.90;5.10;;;;;;;7.71;88.67;100504.11;107758;1280;22882;-51
2023/05/15 02:40:14;;;;;;;7.30;4.20;;;;;;;7.76;88.71;100506.44;107125;1280;25454;-44
2023/05/15 02:42:41;;;;;;;11.30;4.90;;;;;;;7.78;88.62;100505.79;107176;1280;25258;-44
2023/05/15 02:45:09;;;;;;;7.50;4.60;;;;;;;7.80;88.57;100505.63;107091;1280;22659;-44
2023/05/15 02:47:36;;;;;;;11.70;4.30;;;;;;;7.81;88.55;100508.93;107031;1280;22608;-45
2023/05/15 02:50:04;;;;;;;10.40;4.40;;;;;;;7.80;88.39;100509.45;106992;1280;23905;-51
2023/05/15 02:52:34;;;;;;;8.20;4.20;;;;;;;7.82;88.70;100512.09;107200;1280;25221;-44
2023/05/15 02:55:02;;;;;;;11.20;4.10;;;;;;;7.88;88.78;100514.77;106715;1280;22534;-52
2023/05/15 02:57:29;;;;;;;6.40;4.00;;;;;;;7.93;88.69;100512.93;107094;1280;24348;-52
2023/05/15 02:59:56;;;;;;;22.90;5.10;;;;;;;7.98;88.73;100510.94;107234;1280;24300;-44
2023/05/15 03:02:23;;;;;;;13.20;3.90;;;;;;;8.00;88.76;100508.52;107032;1280;22519;-45
2023/05/15 03:04:50;;;;;;;10.00;4.40;;;;;;;7.98;89.03;100506.92;107398;1280;25331;-46
2023/05/15 03:07:17;;;;;;;6.90;4.40;;;;;;;8.00;89.68;100507.48;106808;1280;22526;-52
2023/05/15 03:09:44;;;;;;;7.60;3.80;;;;;;;8.07;89.79;100511.39;106916;1280;23140;-45
2023/05/15 03:12:11;;;;;;;14.00;5.00;;;;;;;8.13;89.84;100514.78;107428;1280;22493;-45
2023/05/15 03:14:38;;;;;;;13.00;4.00;;;;;;;8.16;89.92;100516.03;107131;1280;24752;-49
2023/05/15 03:17:06;;;;;;;6.80;4.30;;;;;;;8.25;89.81;100513.70;106799;1280;22539;-50
2023/05/15 03:19:33;;;;;;;11.70;3.80;;;;;;;8.34;89.35;100513.15;107529;1280;22656;-52
2023/05/15 03:22:00;;;;;;;10.60;3.70;;;;;;;8.41;88.81;100514.98;107176;1280;22534;-43
2023/05/15 03:24:26;;;;;;;6.20;3.40;;;;;;;8.45;88.42;100511.05;106801;1280;22603;-43
2023/05/15 03:26:53;;;;;;;6.30;4.10;;;;;;;8.51;88.45;100512.52;108060;1280;25583;-52
2023/05/15 03:29:20;;;;;;;8.70;4.10;;;;;;;8.60;88.57;100515.39;107118;1280;22539;-44
2023/05/15 03:31:47;;;;;;;5.70;3.40;;;;;;;8.69;88.48;100518.27;107020;1280;22547;-45
2023/05/15 03:34:14;;;;;;;8.30;3.90;;;;;;;8.80;88.26;100518.05;106916;1280;24387;-43
2023/05/15 03:36:41;;;;;;;15.20;4.50;;;;;;;8.91;88.21;100516.95;107120;1280;23214;-51
2023/05/15 03:39:09;;;;;;;5.40;4.10;;;;;;;9.04;88.05;100517.42;107560;1280;22661;-43
2023/05/15 03:41:36;;;;;;;9.60;3.90;;;;;;;9.17;87.82;100522.23;107035;1280;22526;-45
2023/05/15 03:44:04;;;;;;;13.40;4.30;;;;;;;9.31;87.35;100523.59;106588;1280;22541;-44
2023/05/15 03:46:31;;;;;;;15.90;4.70;;;;;;;9.45;87.00;100524.23;107199;1280;24266;-44
2023/05/15 03:48:58;;;;;;;10.60;4.70;;;;;;;9.60;86.40;100526.61;106926;1280;22540;-44
2023/05/15 03:51:25;;;;;;;10.10;4.50;;;;;;;9.74;86.34;100527.77;106759;1280;25356;-44
2023/05/15 03:53:52;;;;;;;10.20;3.90;;;;;;;9.86;85.72;100527.14;106834;1274;22555;-50
2023/05/15 03:56:22;;;;;;;13.80;4.80;;;;;;;9.98;85.27;100531.57;106953;1280;22535;-44
2023/05/15 03:58:49;;;;;;;12.50;4.90;;;;;;;10.08;84.75;100531.30;107180;1280;25281;-44
2023/05/15 04:01:16;;;;;;;14.20;4.50;;;;;;;10.20;84.30;100526.14;107075;1280;24227;-44
2023/05/15 04:03:43;;;;;;;13.30;5.20;;;;;;;10.34;83.80;100523.44;107148;1280;22525;-45
2023/05/15 04:06:10;;;;;;;10.70;5.30;;;;;;;10.45;83.64;100520.00;107014;1280;22532;-45
2023/05/15 04:08:37;;;;;;;13.40;6.40;;;;;;;10.56;83.32;100517.08;107645;1280;24765;-43
2023/05/15 04:11:06;;;;;;;18.60;6.20;;;;;;;10.71;82.62;100512.23;107211;1280;22951;-45
2023/05/15 04:13:33;;;;;;;20.10;5.30;;;;;;;10.86;81.48;100510.01;107087;1280;22616;-54
2023/05/15 04:16:00;;;;;;;10.90;5.20;;;;;;;11.02;80.32;100505.34;106967;1280;22536;-45
2023/05/15 04:18:27;;;;;;;7.60;5.10;;;;;;;11.19;79.54;100505.34;106829;1280;22530;-53
2023/05/15 04:20:54;;;;;;;10.30;5.10;;;;;;;11.35;78.88;100503.60;106889;1280;23071;-45
2023/05/15 04:23:21;;;;;;;6.20;4.60;;;;;;;11.48;78.33;100498.54;107050;1280;26600;-45
2023/05/15 04:25:48;;;;;;;15.50;5.60;;;;;;;11.62;77.57;100504.13;107315;1281;23052;-55
2023/05/15 04:28:15;;;;;;;10.70;5.10;;;;;;;11.75;77.24;100506.55;107515;1273;24231;-54
2023/05/15 04:30:42;;;;;;;10.30;5.30;;;;;;;11.86;76.56;100508.13;107476;1275;22363;-44
2023/05/15 04:33:10;;;;;;;10.70;5.40;;;;;;;11.96;76.38;100504.27;106651;1280;25211;-53
2023/05/15 04:35:37;;;;;;;12.10;6.00;;;;;;;12.05;77.24;100504.77;107619;1276;24453;-45
2023/05/15 04:38:04;;;;;;;16.50;6.50;;;;;;;12.12;77.41;100505.45;107141;1280;22520;-44
2023/05/15 04:40:31;;;;;;;11.30;6.20;;;;;;;12.21;77.41;100502.45;109922;1276;22966;-46
2023/05/15 04:42:58;;;;;;;18.10;5.50;;;;;;;12.32;77.41;100502.06;108800;1280;25389;-44
2023/05/15 04:45:25;;;;;;;10.10;4.40;;;;;;;12.47;77.09;100498.86;109942;1273;22356;-46
2023/05/15 04:47:52;;;;;;;12.80;4.30;;;;;;;12.62;76.45;100493.00;109884;1273;22392;-55
2023/05/15 04:50:19;;;;;;;13.10;4.60;;;;;;;12.76;75.76;100489.25;109959;1277;22512;-52
2023/05/15 04:52:47;;;;;;;9.40;3.80;;;;;;;12.91;75.67;100488.98;109938;1276;22667;-45
2023/05/15 04:55:14;;;;;;;15.80;4.40;;;;;;;13.08;74.62;100492.36;110026;1280;22936;-54
2023/05/15 04:57:41;;;;;;;20.40;4.60;;;;;;;13.25;73.26;100490.52;109668;1280;22246;-55
2023/05/15 05:00:11;;;;;;;20.40;4.10;;;;;;;13.41;72.18;100492.14;109932;1279;22285;-54
2023/05/15 05:02:38;;;;;;;32.10;5.80;;;;;;;13.59;71.24;100485.15;109851;1281;22348;-45
2023/05/15 05:05:06;;;;;;;21.70;4.80;;;;;;;13.75;70.18;100482.19;109194;1280;22289;-54
2023/05/15 05:07:34;;;;;;;20.70;4.20;;;;;;;13.93;68.62;100479.91;109153;1272;23181;-54
2023/05/15 05:10:02;;;;;;;19.20;3.70;;;;;;;14.09;67.91;100473.05;109814;1273;23998;-55
2023/05/15 05:12:29;;;;;;;23.10;4.30;;;;;;;14.26;67.47;100473.55;109717;1275;23138;-55
2023/05/15 05:14:56;;;;;;;18.00;3.90;;;;;;;14.42;66.97;100466.34;109643;1276;22384;-45
2023/05/15 05:17:23;;;;;;;12.90;3.80;;;;;;;14.59;64.65;100468.42;109500;1273;22428;-55
2023/05/15 05:19:50;;;;;;;17.10;4.80;;;;;;;14.77;63.22;100475.89;109698;1273;23407;-54
2023/05/15 05:22:17;;;;;;;7.00;3.20;;;;;;;14.94;62.03;100474.94;109549;1275;23135;-54
2023/05/15 05:24:45;;;;;;;13.90;3.70;;;;;;;15.10;60.70;100477.69;109220;1280;22536;-55
2023/05/15 05:27:13;;;;;;;52.50;5.40;;;;;;;15.27;60.03;100475.66;109400;1273;22987;-45
2023/05/15 05:29:59;;;;;;;15.30;3.80;;;;;;;15.44;59.46;100479.41;109041;1272;22482;-46
2023/05/15 05:37:17;;;;;;;18.60;3.40;;;;;;;15.94;58.07;100473.98;109053;1273;22611;-54
2023/05/15 05:41:15;;;;;;;19.20;3.50;;;;;;;16.20;57.33;100470.81;108528;1273;231892;-55
2023/05/15 05:44:53;;;;;;;13.20;4.00;;;;;;;16.44;56.17;100471.92;109051;1273;24439;-55
2023/05/15 05:48:47;;;;;;;18.20;3.60;;;;;;;16.69;55.61;100465.71;109524;1273;22433;-44
2023/05/15 05:56:23;;;;;;;7.40;2.60;;;;;;;17.29;54.60;100461.51;109411;1273;22208;-45
2023/05/15 05:58:50;;;;;;;5.90;2.60;;;;;;;17.48;53.57;100457.33;109625;1273;22384;-45
2023/05/15 06:01:36;;;;;;;9.10;3.00;;;;;;;17.63;52.46;100457.47;109397;1276;22513;-45
2023/05/15 06:04:03;;;;;;;5.90;3.10;;;;;;;17.79;52.49;100456.55;109443;1279;22928;-55
2023/05/15 06:06:32;;;;;;;8.20;2.80;;;;;;;17.94;52.70;100452.25;109497;1276;22326;-54
2023/05/15 06:09:04;;;;;;;7.60;2.50;;;;;;;18.15;52.68;100450.96;109192;1276;22949;-55
2023/05/15 06:11:33;;;;;;;4.70;2.50;;;;;;;18.36;51.47;100446.98;108964;1273;23305;-45
2023/05/15 06:14:19;;;;;;;8.00;3.00;;;;;;;18.57;49.11;100446.70;109312;1273;22574;-55
2023/05/15 06:21:50;;;;;;;4.30;2.10;;;;;;;19.08;46.28;100442.66;109508;1273;22415;-45
2023/05/15 06:33:09;;;;;;;7.40;2.20;;;;;;;20.00;43.53;100442.50;109539;1273;22404;-45
2023/05/15 06:36:21;;;;;;;8.40;2.00;;;;;;;20.20;43.44;100439.99;109134;1278;22436;-56
2023/05/15 06:43:08;;;;;;;4.60;2.00;;;;;;;20.69;40.55;100436.17;108489;1279;22173;-45
2023/05/15 06:46:26;;;;;;;5.00;2.10;;;;;;;20.90;39.88;100433.92;109149;1273;22465;-55
2023/05/15 06:49:42;;;;;;;8.40;2.00;;;;;;;21.11;39.32;100432.19;109196;1272;22349;-46
2023/05/15 06:52:52;;;;;;;3.40;1.50;;;;;;;21.29;38.54;100425.27;109018;1278;23220;-54
2023/05/15 06:55:33;;;;;;;3.00;2.00;;;;;;;21.49;36.77;100423.15;109291;1276;22608;-55
2023/05/15 06:58:00;;;;;;;5.60;2.20;;;;;;;21.67;35.82;100419.58;109463;1273;22302;-56
2023/05/15 07:00:26;;;;;;;7.80;1.80;;;;;;;21.83;35.20;100416.17;109022;1275;22417;-55
2023/05/15 07:03:24;;;;;;;9.40;2.50;;;;;;;22.00;34.53;100413.10;109562;1278;22934;-45
2023/05/15 07:07:06;;;;;;;3.30;1.90;;;;;;;22.21;33.69;100408.77;108936;1280;22683;-46
2023/05/15 07:10:01;;;;;;;5.20;2.20;;;;;;;22.34;33.37;100406.23;109078;1278;22386;-47
2023/05/15 07:12:34;;;;;;;13.10;2.60;;;;;;;22.43;33.24;100407.75;109291;1273;22443;-55
2023/05/15 07:15:26;;;;;;;5.10;2.30;;;;;;;22.53;32.97;100404.42;109495;1276;22757;-46
2023/05/15 07:18:24;;;;;;;8.70;2.30;;;;;;;22.66;31.98;100404.38;109543;1276;23220;-46
2023/05/15 07:21:21;;;;;;;4.40;2.30;;;;;;;22.77;32.68;100402.21;109320;1280;22953;-46
2023/05/15 07:24:35;;;;;;;7.40;2.50;;;;;;;22.91;31.91;100402.45;108964;1272;23040;-47
2023/05/15 07:31:18;;;;;;;6.00;2.30;;;;;;;23.27;30.22;100395.67;109495;1277;22427;-56
2023/05/15 07:34:42;;;;;;;3.60;2.50;;;;;;;23.35;29.02;100389.01;109446;1273;23178;-54
2023/05/15 07:37:47;;;;;;;2.60;2.00;;;;;;;23.47;28.99;100385.56;109295;1280;23017;-54
2023/05/15 07:40:15;;;;;;;4.90;2.20;;;;;;;23.56;28.84;100386.48;109531;1279;22647;-44
2023/05/15 07:42:43;;;;;;;13.40;3.40;;;;;;;23.68;29.97;100385.39;109400;1273;22335;-44
2023/05/15 07:45:10;;;;;;;22.00;5.90;;;;;;;23.82;30.03;100381.77;109015;1280;22990;-44
2023/05/15 07:47:37;;;;;;;11.00;4.10;;;;;;;23.93;29.30;100383.35;109651;1273;22355;-45
2023/05/15 07:50:04;;;;;;;10.00;3.10;;;;;;;24.04;29.11;100383.12;109485;1273;22609;-45
2023/05/15 07:52:32;;;;;;;5.70;2.60;;;;;;;24.16;29.04;100384.04;109493;1272;22272;-55
2023/05/15 07:55:01;;;;;;;6.00;1.90;;;;;;;24.27;28.84;100384.83;108743;1278;22627;-45
2023/05/15 07:57:28;;;;;;;5.10;2.00;;;;;;;24.38;28.73;100381.08;108983;1270;23160;-45
2023/05/15 07:59:55;;;;;;;5.80;2.20;;;;;;;24.49;29.21;100381.71;109350;1273;23753;-45
2023/05/15 08:02:24;;;;;;;5.90;2.30;;;;;;;24.55;27.68;100389.36;109610;1273;22760;-44
2023/05/15 08:05:11;;;;;;;5.20;2.50;;;;;;;24.58;26.28;100382.08;109350;1273;22331;-56
2023/05/15 08:20:26;;;;;;;15.70;3.00;;;;;;;24.77;27.61;100372.10;109589;1277;22311;-46
2023/05/15 08:23:19;;;;;;;6.20;2.20;;;;;;;24.94;27.41;100367.85;108937;1273;22245;-46
2023/05/15 08:25:53;;;;;;;6.90;2.00;;;;;;;25.05;26.73;100368.30;109546;1280;22374;-46
2023/05/15 08:28:20;;;;;;;1.80;1.70;;;;;;;25.10;26.32;100367.52;109534;1273;22439;-44
2023/05/15 08:30:52;;;;;;;6.40;2.50;;;;;;;25.17;25.78;100361.73;109312;1276;26485;-55
2023/05/15 08:33:32;;;;;;;4.10;2.20;;;;;;;25.21;24.25;100355.23;109586;1278;22259;-45
2023/05/15 08:36:07;;;;;;;4.00;2.10;;;;;;;25.14;24.97;100358.70;109392;1276;22434;-55
2023/05/15 08:38:36;;;;;;;6.80;2.20;;;;;;;25.13;26.28;100353.39;109517;1280;22548;-54
2023/05/15 08:41:33;;;;;;;9.10;2.00;;;;;;;25.23;26.49;100356.20;108996;1276;22570;-56
2023/05/15 08:44:18;;;;;;;8.80;2.20;;;;;;;25.36;26.63;100352.55;108300;1277;22535;-45
2023/05/15 08:46:48;;;;;;;4.40;2.40;;;;;;;25.46;25.28;100351.23;109507;1274;22426;-56
2023/05/15 08:49:40;;;;;;;6.10;2.30;;;;;;;25.49;25.26;100350.35;109197;1276;22309;-55
2023/05/15 08:52:45;;;;;;;10.00;2.30;;;;;;;25.55;24.50;100342.15;108396;1270;22580;-55
2023/05/15 09:00:13;;;;;;;12.20;3.00;;;;;;;25.37;25.82;100343.39;108734;1275;22525;-55
2023/05/15 09:03:54;;;;;;;4.60;2.00;;;;;;;25.43;24.98;100343.34;109282;1273;22364;-45
2023/05/15 09:07:45;;;;;;;8.40;2.60;;;;;;;25.47;25.34;100345.46;109062;1273;22840;-46
2023/05/15 09:11:29;;;;;;;5.20;2.90;;;;;;;25.56;25.74;100337.39;109286;1281;23169;-58
2023/05/15 09:14:27;;;;;;;7.40;2.30;;;;;;;25.71;25.27;100329.67;109206;1275;22423;-44
2023/05/15 09:17:22;;;;;;;3.00;2.10;;;;;;;25.79;24.54;100331.04;109157;1269;23650;-53
2023/05/15 09:20:25;;;;;;;12.10;2.50;;;;;;;25.74;24.64;100324.90;109473;1275;22363;-56
2023/05/15 09:23:42;;;;;;;8.80;2.40;;;;;;;25.71;24.45;100317.00;108839;1275;22531;-47
2023/05/15 09:26:27;;;;;;;6.10;2.40;;;;;;;25.64;23.51;100319.26;109221;1273;22969;-43
2023/05/15 09:29:08;;;;;;;6.30;2.30;;;;;;;25.54;24.90;100321.52;108112;1275;22933;-55
2023/05/15 09:31:39;;;;;;;4.70;2.20;;;;;;;25.57;24.25;100319.51;108490;1279;23455;-54
2023/05/15 09:34:09;;;;;;;5.10;2.10;;;;;;;25.56;23.47;100324.95;109010;1276;23206;-44
2023/05/15 09:36:47;;;;;;;9.70;2.70;;;;;;;25.47;24.89;100321.02;109316;1273;22406;-43
2023/05/15 09:40:00;;;;;;;4.90;2.10;;;;;;;25.45;23.75;100321.48;109445;1275;22421;-45
2023/05/15 09:42:39;;;;;;;4.20;2.40;;;;;;;25.50;24.94;100312.98;109161;1276;22384;-52
2023/05/15 09:45:24;;;;;;;26.80;3.00;;;;;;;25.56;23.48;100314.94;109593;1280;22386;-53
2023/05/15 09:47:58;;;;;;;6.60;2.70;;;;;;;25.65;24.00;100311.85;109635;1273;23373;-52
2023/05/15 09:50:44;;;;;;;4.40;2.00;;;;;;;25.79;23.68;100305.86;109543;1276;22282;-52
2023/05/15 09:53:12;;;;;;;4.10;1.90;;;;;;;25.85;23.45;100300.62;109433;1278;23407;-44
2023/05/15 09:55:52;;;;;;;3.10;1.90;;;;;;;25.90;22.46;100298.52;109089;1273;22522;-53
2023/05/15 09:58:25;;;;;;;5.10;1.80;;;;;;;25.93;22.40;100295.30;109586;1276;22374;-54
2023/05/15 10:00:54;;;;;;;5.70;1.70;;;;;;;25.95;22.01;100296.25;109647;1273;22386;-53
2023/05/15 10:03:24;;;;;;;5.00;2.30;;;;;;;25.94;21.90;100294.34;109529;1273;23511;-44
2023/05/15 10:05:58;;;;;;;8.70;1.70;;;;;;;25.90;21.34;100292.25;109404;1275;22393;-55
2023/05/15 10:08:33;;;;;;;7.10;2.00;;;;;;;25.85;21.88;100290.08;109665;1273;23263;-54
2023/05/15 10:11:02;;;;;;;5.80;2.00;;;;;;;25.83;21.76;100291.98;109683;1273;22217;-54
2023/05/15 10:13:31;;;;;;;4.20;1.80;;;;;;;25.88;22.07;100289.88;109583;1275;22277;-44
2023/05/15 10:15:58;;;;;;;3.70;1.80;;;;;;;25.95;22.69;100289.77;109507;1280;22445;-45
2023/05/15 10:18:26;;;;;;;9.70;2.30;;;;;;;25.93;24.50;100293.16;109370;1280;23322;-47
2023/05/15 10:20:56;;;;;;;7.50;2.10;;;;;;;25.85;22.84;100295.27;109543;1274;22453;-45
2023/05/15 10:23:33;;;;;;;2.40;1.60;;;;;;;25.95;22.51;100287.50;109442;1280;23428;-55
2023/05/15 10:26:02;;;;;;;9.90;2.30;;;;;;;26.18;23.46;100282.98;109812;1276;22310;-44
2023/05/15 10:28:29;;;;;;;2.80;2.00;;;;;;;26.44;23.62;100282.36;109790;1276;22305;-44
2023/05/15 10:30:58;;;;;;;2.80;2.00;;;;;;;26.67;22.18;100280.67;109721;1280;22421;-44
2023/05/15 10:33:25;;;;;;;3.70;2.50;;;;;;;26.85;21.91;100279.60;109514;1273;23522;-55
2023/05/15 10:35:52;;;;;;;12.70;2.30;;;;;;;26.98;21.39;100285.33;109630;1279;22897;-53
2023/05/15 10:38:19;;;;;;;4.60;2.00;;;;;;;27.03;22.09;100282.45;109511;1280;22372;-44
2023/05/15 10:40:47;;;;;;;9.30;2.20;;;;;;;26.96;22.00;100280.12;109500;1278;22493;-55
2023/05/15 10:43:14;;;;;;;7.50;2.30;;;;;;;27.08;22.01;100273.23;109025;1280;23237;-45
2023/05/15 10:45:42;;;;;;;6.70;2.20;;;;;;;27.41;22.01;100275.17;108918;1280;22630;-45
2023/05/15 10:48:11;;;;;;;2.80;2.00;;;;;;;27.71;22.65;100273.84;109731;1281;22441;-54
2023/05/15 10:50:38;;;;;;;7.20;2.00;;;;;;;27.78;22.04;100271.20;108647;1279;22406;-46
2023/05/15 10:53:05;;;;;;;9.40;2.50;;;;;;;27.67;22.43;100278.91;109789;1273;22459;-44
2023/05/15 10:55:34;;;;;;;9.20;2.10;;;;;;;27.54;21.57;100273.89;109725;1273;22419;-45
2023/05/15 10:58:08;;;;;;;4.10;2.10;;;;;;;27.50;21.58;100273.48;109699;1280;22336;-45
2023/05/15 11:00:42;;;;;;;6.60;1.90;;;;;;;27.50;20.45;100273.67;109669;1279;23439;-45
2023/05/15 11:03:34;;;;;;;2.30;2.00;;;;;;;27.49;20.18;100275.91;109703;1273;22964;-44
2023/05/15 11:06:14;;;;;;;6.70;2.30;;;;;;;27.40;20.18;100272.23;109707;1280;22502;-44
2023/05/15 11:08:44;;;;;;;5.00;1.80;;;;;;;27.34;20.64;100268.02;109766;1273;23144;-55
2023/05/15 11:11:54;;;;;;;4.80;1.90;;;;;;;27.45;21.00;100265.98;109620;1280;22413;-44
2023/05/15 11:14:22;;;;;;;6.90;2.00;;;;;;;27.68;20.50;100270.63;109631;1278;22566;-53
2023/05/15 11:16:52;;;;;;;5.80;2.10;;;;;;;27.74;20.02;100271.52;109544;1273;22903;-55
2023/05/15 11:19:44;;;;;;;3.10;1.70;;;;;;;27.61;19.52;100278.45;109659;1280;22149;-45
2023/05/15 11:22:34;;;;;;;6.70;1.90;;;;;;;27.35;19.87;100274.60;109652;1270;22850;-45
2023/05/15 11:25:08;;;;;;;2.60;1.80;;;;;;;27.11;20.73;100279.30;109618;1273;22334;-55
2023/05/15 11:27:45;;;;;;;4.60;2.00;;;;;;;26.93;21.38;100277.23;109637;1279;22454;-43
2023/05/15 11:30:20;;;;;;;4.70;2.40;;;;;;;26.79;21.24;100273.73;109693;1276;22414;-43
2023/05/15 11:33:03;;;;;;;3.80;2.00;;;;;;;26.72;21.65;100271.34;109789;1279;22912;-52
2023/05/15 11:35:38;;;;;;;6.40;1.90;;;;;;;26.67;21.66;100268.09;109768;1280;22328;-43
2023/05/15 11:38:12;;;;;;;6.10;2.30;;;;;;;26.62;21.57;100268.83;109687;1275;22203;-53
2023/05/15 11:40:46;;;;;;;5.20;2.10;;;;;;;26.55;21.42;100263.77;109777;1280;22484;-53
2023/05/15 11:43:23;;;;;;;7.40;2.20;;;;;;;26.50;21.91;100262.48;109852;1281;22365;-53
2023/05/15 11:45:54;;;;;;;5.50;2.30;;;;;;;26.48;21.46;100260.09;109335;1281;22151;-43
2023/05/15 11:48:22;;;;;;;3.10;1.80;;;;;;;26.45;21.69;100255.83;109896;1281;23207;-43
2023/05/15 11:50:52;;;;;;;4.50;2.30;;;;;;;26.39;21.13;100250.81;109902;1280;22310;-43
2023/05/15 11:53:19;;;;;;;5.60;2.00;;;;;;;26.32;21.81;100248.23;109938;1276;23332;-46
2023/05/15 11:55:46;;;;;;;3.20;2.10;;;;;;;26.32;21.55;100248.98;109952;1280;22275;-53
2023/05/15 11:58:14;;;;;;;4.10;2.10;;;;;;;26.33;21.67;100246.61;109856;1280;22236;-53
2023/05/15 12:00:42;;;;;;;3.30;1.90;;;;;;;26.34;21.61;100240.60;109458;1280;22805;-53
2023/05/15 12:03:14;;;;;;;3.30;2.00;;;;;;;26.33;21.10;100234.98;107372;1281;25349;-55
2023/05/15 12:05:42;;;;;;;4.60;1.70;;;;;;;26.29;21.81;100230.39;109320;1281;22505;-53
2023/05/15 12:08:23;;;;;;;3.30;1.90;;;;;;;26.29;22.44;100233.61;108777;1281;22284;-53
2023/05/15 12:10:50;;;;;;;4.70;1.90;;;;;;;26.27;21.71;100230.70;109905;1280;22881;-53
2023/05/15 12:13:17;;;;;;;10.50;2.40;;;;;;;26.22;22.24;100232.27;109888;1281;22407;-43
2023/05/15 12:15:45;;;;;;;3.10;2.00;;;;;;;26.16;22.34;100230.36;109928;1280;22473;-53
2023/05/15 12:18:12;;;;;;;4.30;2.00;;;;;;;26.07;22.02;100228.83;109839;1281;22283;-53
2023/05/15 12:20:43;;;;;;;3.20;1.90;;;;;;;25.93;22.28;100232.61;109851;1281;23444;-43
2023/05/15 12:23:14;;;;;;;3.00;2.10;;;;;;;25.76;22.53;100230.43;109947;1281;22319;-44
2023/05/15 12:25:41;;;;;;;5.30;2.00;;;;;;;25.65;22.99;100230.23;109969;1280;22259;-43
2023/05/15 12:28:08;;;;;;;12.60;2.50;;;;;;;25.59;22.82;100227.02;109947;1281;22214;-44
2023/05/15 12:30:34;;;;;;;6.30;1.70;;;;;;;25.55;23.07;100223.53;109148;1280;22552;-44
2023/05/15 12:33:03;;;;;;;3.40;1.70;;;;;;;25.59;23.33;100217.56;106875;1281;25472;-54
2023/05/15 12:35:34;;;;;;;2.50;1.90;;;;;;;25.69;23.91;100214.25;107074;1280;22285;-53
2023/05/15 12:38:05;;;;;;;6.50;2.20;;;;;;;25.77;23.64;100210.55;107403;1281;22338;-45
2023/05/15 12:40:32;;;;;;;5.40;2.50;;;;;;;25.76;23.68;100210.98;109929;1281;22292;-43
2023/05/15 12:43:06;;;;;;;3.50;1.50;;;;;;;25.77;23.87;100214.34;109945;1281;22721;-44
